createdAt,value
2023-01-17T00:00:23.304Z,4.60
2023-01-17T00:02:55.064Z,4.50
2023-01-17T00:05:46.854Z,4.50
2023-01-17T00:08:39.686Z,4.50
2023-01-17T00:11:19.155Z,4.50
2023-01-17T00:13:50.473Z,4.50
2023-01-17T00:16:20.168Z,4.40
2023-01-17T00:19:07.094Z,4.50
2023-01-17T00:21:55.905Z,4.40
2023-01-17T00:24:42.350Z,4.40
2023-01-17T00:27:13.226Z,4.40
2023-01-17T00:29:46.005Z,4.40
2023-01-17T00:32:16.811Z,4.40
2023-01-17T00:34:47.272Z,4.40
2023-01-17T00:37:14.161Z,4.40
2023-01-17T00:39:45.134Z,4.40
2023-01-17T00:42:11.981Z,4.30
2023-01-17T00:44:57.871Z,4.30
2023-01-17T00:47:48.725Z,4.30
2023-01-17T00:50:41.066Z,4.30
2023-01-17T00:53:27.366Z,4.20
2023-01-17T00:56:14.187Z,4.10
2023-01-17T00:59:02.394Z,4.00
2023-01-17T01:01:48.391Z,4.00
2023-01-17T01:04:33.779Z,3.80
2023-01-17T01:07:23.309Z,3.80
2023-01-17T01:10:08.699Z,3.70
2023-01-17T01:12:56.061Z,3.60
2023-01-17T01:15:42.436Z,3.60
2023-01-17T01:18:30.246Z,3.50
2023-01-17T01:21:20.861Z,3.40
2023-01-17T01:24:10.303Z,3.40
2023-01-17T01:26:57.297Z,3.30
2023-01-17T01:29:43.219Z,3.30
2023-01-17T01:32:31.216Z,3.20
2023-01-17T01:35:03.030Z,3.10
2023-01-17T01:37:33.831Z,3.10
2023-01-17T01:40:07.121Z,3.00
2023-01-17T01:42:40.141Z,3.00
2023-01-17T01:48:17.041Z,3.10
2023-01-17T01:50:44.943Z,3.10
2023-01-17T01:53:14.359Z,3.10
2023-01-17T01:55:50.787Z,3.10
2023-01-17T01:58:25.208Z,3.20
2023-01-17T02:06:49.845Z,3.20
2023-01-17T02:09:19.131Z,3.20
2023-01-17T02:12:01.441Z,3.30
2023-01-17T02:17:14.728Z,3.30
2023-01-17T02:20:05.203Z,3.40
2023-01-17T02:26:15.010Z,3.40
2023-01-17T02:28:52.221Z,3.40
2023-01-17T02:31:41.025Z,3.40
2023-01-17T02:34:33.379Z,3.40
2023-01-17T02:37:05.934Z,3.40
2023-01-17T02:39:38.926Z,3.50
2023-01-17T02:42:12.405Z,3.50
2023-01-17T02:44:52.746Z,3.50
2023-01-17T02:47:27.569Z,3.50
2023-01-17T02:53:00.169Z,3.50
2023-01-17T02:55:35.640Z,3.50
2023-01-17T02:58:08.712Z,3.40
2023-01-17T03:00:48.028Z,3.40
2023-01-17T03:03:32.506Z,3.40
2023-01-17T03:06:13.396Z,3.40
2023-01-17T03:09:11.601Z,3.30
2023-01-17T03:14:21.411Z,3.10
2023-01-17T03:16:49.958Z,3.10
2023-01-17T03:19:34.027Z,3.00
2023-01-17T03:22:13.139Z,3.00
2023-01-17T03:24:43.469Z,3.00
2023-01-17T03:27:22.991Z,2.90
2023-01-17T03:30:16.151Z,2.90
2023-01-17T03:33:27.351Z,3.00
2023-01-17T03:36:03.698Z,3.00
2023-01-17T03:38:31.915Z,3.00
2023-01-17T03:41:06.334Z,3.00
2023-01-17T03:43:35.855Z,3.00
2023-01-17T03:46:09.245Z,3.00
2023-01-17T03:48:45.350Z,2.90
2023-01-17T03:51:15.304Z,2.90
2023-01-17T03:53:46.745Z,2.80
2023-01-17T03:56:16.692Z,2.70
2023-01-17T03:58:45.221Z,2.70
2023-01-17T04:01:23.101Z,2.60
2023-01-17T04:03:54.036Z,2.60
2023-01-17T04:06:24.666Z,2.60
2023-01-17T04:08:55.795Z,2.60
2023-01-17T04:11:24.101Z,2.60
2023-01-17T04:13:52.382Z,2.70
2023-01-17T04:16:25.329Z,2.60
2023-01-17T04:18:53.476Z,2.60
2023-01-17T04:21:23.255Z,2.50
2023-01-17T04:23:53.966Z,2.50
2023-01-17T04:26:28.501Z,2.40
2023-01-17T04:28:58.952Z,2.40
2023-01-17T04:31:41.429Z,2.40
2023-01-17T04:34:10.935Z,2.30
2023-01-17T04:36:47.824Z,2.30
2023-01-17T04:39:16.515Z,2.30
2023-01-17T04:45:10.042Z,2.50
2023-01-17T04:47:42.086Z,2.50
2023-01-17T04:53:30.750Z,2.30
2023-01-17T04:56:13.891Z,2.30
2023-01-17T05:02:08.486Z,2.30
2023-01-17T05:07:29.935Z,2.30
2023-01-17T05:10:18.959Z,2.30
2023-01-17T05:15:46.852Z,2.40
2023-01-17T05:18:20.472Z,2.50
2023-01-17T05:20:59.286Z,2.50
2023-01-17T05:23:31.166Z,2.60
2023-01-17T05:26:00.691Z,2.60
2023-01-17T05:28:30.563Z,2.50
2023-01-17T05:33:53.177Z,2.60
2023-01-17T05:36:24.260Z,2.60
2023-01-17T05:41:43.266Z,2.60
2023-01-17T05:44:16.949Z,2.60
2023-01-17T05:46:56.445Z,2.60
2023-01-17T05:49:45.843Z,2.70
2023-01-17T05:52:41.934Z,2.70
2023-01-17T05:55:11.238Z,2.70
2023-01-17T05:57:49.110Z,2.80
2023-01-17T06:00:33.729Z,2.70
2023-01-17T06:03:25.296Z,2.60
2023-01-17T06:05:55.818Z,2.60
2023-01-17T06:08:24.976Z,2.50
2023-01-17T06:10:54.112Z,2.50
2023-01-17T06:13:24.941Z,2.60
2023-01-17T06:15:53.691Z,2.60
2023-01-17T06:18:32.455Z,2.70
2023-01-17T06:21:05.034Z,2.70
2023-01-17T06:32:10.212Z,2.50
2023-01-17T06:34:58.269Z,2.50
2023-01-17T06:37:27.757Z,2.40
2023-01-17T06:43:05.865Z,2.30
2023-01-17T06:45:44.200Z,2.30
2023-01-17T06:48:18.373Z,2.30
2023-01-17T06:53:46.063Z,2.30
2023-01-17T07:02:01.770Z,2.40
2023-01-17T07:04:33.217Z,2.40
2023-01-17T07:07:08.115Z,2.40
2023-01-17T07:09:38.666Z,2.40
2023-01-17T07:12:12.926Z,2.50
2023-01-17T07:14:45.340Z,2.50
2023-01-17T07:17:20.021Z,2.50
2023-01-17T07:25:35.325Z,2.60
2023-01-17T07:28:08.246Z,2.60
2023-01-17T07:30:38.258Z,2.60
2023-01-17T07:33:07.045Z,2.60
2023-01-17T07:35:38.890Z,2.70
2023-01-17T07:40:42.319Z,2.90
2023-01-17T07:43:17.051Z,3.10
2023-01-17T07:45:46.241Z,3.40
2023-01-17T07:50:57.585Z,3.90
2023-01-17T07:53:27.606Z,4.10
2023-01-17T07:55:56.416Z,4.30
2023-01-17T07:58:30.078Z,4.60
2023-01-17T08:01:02.157Z,4.80
2023-01-17T08:03:32.392Z,5.10
2023-01-17T08:06:00.971Z,5.60
2023-01-17T08:11:36.576Z,6.70
2023-01-17T08:14:07.351Z,7.40
2023-01-17T08:16:57.062Z,7.80
2023-01-17T08:19:25.423Z,8.20
2023-01-17T08:21:53.821Z,8.50
2023-01-17T08:24:22.374Z,9.20
2023-01-17T08:26:51.386Z,10.00
2023-01-17T08:32:11.026Z,11.50
2023-01-17T08:34:46.616Z,12.20
2023-01-17T08:39:42.240Z,12.80
2023-01-17T08:42:10.356Z,12.10
2023-01-17T08:44:42.224Z,12.00
2023-01-17T08:47:10.622Z,12.50
2023-01-17T08:49:39.379Z,12.80
2023-01-17T08:52:13.272Z,13.00
2023-01-17T08:54:41.619Z,13.30
2023-01-17T08:57:10.525Z,13.90
2023-01-17T08:59:39.783Z,14.40
2023-01-17T09:02:15.832Z,15.00
2023-01-17T09:04:44.834Z,15.10
2023-01-17T09:07:14.845Z,14.70
2023-01-17T09:09:43.709Z,14.60
2023-01-17T09:12:12.913Z,14.10
2023-01-17T09:14:41.453Z,13.70
2023-01-17T09:17:09.726Z,13.40
2023-01-17T09:19:39.725Z,13.10
2023-01-17T09:22:10.250Z,12.90
2023-01-17T09:24:40.624Z,12.70
2023-01-17T09:27:10.816Z,12.30
2023-01-17T09:29:39.083Z,12.00
2023-01-17T09:32:07.264Z,12.00
2023-01-17T09:34:37.592Z,12.20
2023-01-17T09:37:05.985Z,12.80
2023-01-17T09:39:34.314Z,13.50
2023-01-17T09:45:01.568Z,13.50
2023-01-17T09:47:30.698Z,13.90
2023-01-17T09:50:25.630Z,13.70
2023-01-17T09:53:01.235Z,13.40
2023-01-17T09:55:33.595Z,13.20
2023-01-17T09:58:06.648Z,13.40
2023-01-17T10:00:43.165Z,13.30
2023-01-17T10:03:21.526Z,13.00
2023-01-17T10:06:00.013Z,13.00
2023-01-17T10:08:34.687Z,13.30
2023-01-17T10:11:13.716Z,13.20
2023-01-17T10:13:51.183Z,12.40
2023-01-17T10:16:35.578Z,12.10
2023-01-17T10:19:17.405Z,12.20
2023-01-17T10:22:07.689Z,12.50
2023-01-17T10:24:56.632Z,12.30
2023-01-17T10:27:26.712Z,11.00
2023-01-17T10:29:55.455Z,10.50
2023-01-17T10:32:29.568Z,11.20
2023-01-17T10:34:59.046Z,12.30
2023-01-17T10:37:28.988Z,12.90
2023-01-17T10:39:59.600Z,12.60
2023-01-17T10:42:30.348Z,12.30
2023-01-17T10:45:01.476Z,12.20
2023-01-17T10:47:34.518Z,12.30
2023-01-17T10:50:05.221Z,12.10
2023-01-17T10:52:37.955Z,11.90
2023-01-17T10:55:18.843Z,11.70
2023-01-17T10:57:49.597Z,11.40
2023-01-17T11:00:33.363Z,11.00
2023-01-17T11:03:03.929Z,11.10
2023-01-17T11:05:35.326Z,11.70
2023-01-17T11:08:04.445Z,11.80
2023-01-17T11:10:48.056Z,12.10
2023-01-17T11:13:24.304Z,12.40
2023-01-17T11:15:54.088Z,12.80
2023-01-17T11:18:24.952Z,12.20
2023-01-17T11:20:53.233Z,11.40
2023-01-17T11:23:23.740Z,10.50
2023-01-17T11:25:53.112Z,9.80
2023-01-17T11:28:23.314Z,9.10
2023-01-17T11:30:55.838Z,8.90
2023-01-17T11:33:50.442Z,9.50
2023-01-17T11:36:21.864Z,10.80
2023-01-17T11:39:05.090Z,11.70
2023-01-17T11:41:34.515Z,11.50
2023-01-17T11:44:04.159Z,11.60
2023-01-17T11:46:33.228Z,12.00
2023-01-17T11:49:11.618Z,12.10
2023-01-17T11:51:45.275Z,12.30
2023-01-17T11:54:18.144Z,12.90
2023-01-17T11:57:01.168Z,13.50
2023-01-17T11:59:31.990Z,13.40
2023-01-17T12:02:24.430Z,13.40
2023-01-17T12:05:05.393Z,13.80
2023-01-17T12:07:40.716Z,13.90
2023-01-17T12:10:09.920Z,14.20
2023-01-17T12:13:05.168Z,14.50
2023-01-17T12:15:44.109Z,14.60
2023-01-17T12:18:22.082Z,14.30
2023-01-17T12:20:58.380Z,13.80
2023-01-17T12:23:45.945Z,13.70
2023-01-17T12:26:24.629Z,13.30
2023-01-17T12:28:59.210Z,13.10
2023-01-17T12:31:33.424Z,13.00
2023-01-17T12:34:14.374Z,13.00
2023-01-17T12:39:35.813Z,13.20
2023-01-17T12:42:13.081Z,13.30
2023-01-17T12:44:51.947Z,13.40
2023-01-17T12:47:21.368Z,13.70
2023-01-17T12:49:55.456Z,14.00
2023-01-17T12:52:31.261Z,14.20
2023-01-17T12:55:05.041Z,14.10
2023-01-17T12:57:45.902Z,14.20
2023-01-17T13:00:20.844Z,14.20
2023-01-17T13:02:53.193Z,14.40
2023-01-17T13:05:23.848Z,14.50
2023-01-17T13:07:55.321Z,14.60
2023-01-17T13:10:30.998Z,14.60
2023-01-17T13:13:11.619Z,14.30
2023-01-17T13:15:42.514Z,14.20
2023-01-17T13:18:14.715Z,14.20
2023-01-17T13:20:53.119Z,14.30
2023-01-17T13:23:28.975Z,14.60
2023-01-17T13:25:59.064Z,14.80
2023-01-17T13:28:35.821Z,14.70
2023-01-17T13:31:12.931Z,14.80
2023-01-17T13:34:01.030Z,14.80
2023-01-17T13:36:38.453Z,14.70
2023-01-17T13:39:21.256Z,14.70
2023-01-17T13:41:54.936Z,14.80
2023-01-17T13:44:30.460Z,14.80
2023-01-17T13:47:00.815Z,14.60
2023-01-17T13:49:34.305Z,14.20
2023-01-17T13:52:07.773Z,13.90
2023-01-17T13:54:48.139Z,13.40
2023-01-17T13:57:36.984Z,12.60
2023-01-17T14:00:32.686Z,11.70
2023-01-17T14:03:06.537Z,11.10
2023-01-17T14:06:00.741Z,10.60
2023-01-17T14:08:29.176Z,10.30
2023-01-17T14:11:09.793Z,10.00
2023-01-17T14:13:39.788Z,9.70
2023-01-17T14:16:10.272Z,9.50
2023-01-17T14:18:41.935Z,9.30
2023-01-17T14:21:14.501Z,9.20
2023-01-17T14:23:59.425Z,9.20
2023-01-17T14:26:39.292Z,9.00
2023-01-17T14:29:25.294Z,9.00
2023-01-17T14:32:00.807Z,8.70
2023-01-17T14:34:35.833Z,8.50
2023-01-17T14:37:05.402Z,8.30
2023-01-17T14:39:44.124Z,8.10
2023-01-17T14:42:17.720Z,7.90
2023-01-17T14:44:50.420Z,7.60
2023-01-17T14:47:18.985Z,7.30
2023-01-17T14:49:49.398Z,7.10
2023-01-17T14:52:18.136Z,7.00
2023-01-17T14:54:49.847Z,6.80
2023-01-17T14:57:25.632Z,6.60
2023-01-17T15:00:10.938Z,6.50
2023-01-17T15:02:41.430Z,6.30
2023-01-17T15:05:13.955Z,6.10
2023-01-17T15:07:43.195Z,5.90
2023-01-17T15:10:15.349Z,5.80
2023-01-17T15:12:49.483Z,5.70
2023-01-17T15:15:28.760Z,5.60
2023-01-17T15:18:16.179Z,5.40
2023-01-17T15:20:48.902Z,5.30
2023-01-17T15:23:18.645Z,5.20
2023-01-17T15:25:47.782Z,5.10
2023-01-17T15:28:16.934Z,5.00
2023-01-17T15:31:00.339Z,4.90
2023-01-17T15:33:28.690Z,4.80
2023-01-17T15:36:02.178Z,4.70
2023-01-17T15:38:38.558Z,4.60
2023-01-17T15:41:12.741Z,4.50
2023-01-17T15:43:42.335Z,4.40
2023-01-17T15:46:21.809Z,4.30
2023-01-17T15:48:51.811Z,4.20
2023-01-17T15:51:34.917Z,4.10
2023-01-17T15:54:17.836Z,4.00
2023-01-17T15:56:47.215Z,3.90
2023-01-17T15:59:30.403Z,3.90
2023-01-17T16:01:58.938Z,3.90
2023-01-17T16:04:28.935Z,3.80
2023-01-17T16:07:10.616Z,3.70
2023-01-17T16:09:44.473Z,3.60
2023-01-17T16:12:12.674Z,3.60
2023-01-17T16:14:59.532Z,3.50
2023-01-17T16:17:30.379Z,3.50
2023-01-17T16:20:01.939Z,3.50
2023-01-17T16:22:31.637Z,3.40
2023-01-17T16:25:00.271Z,3.40
2023-01-17T16:27:28.888Z,3.30
2023-01-17T16:29:58.151Z,3.30
2023-01-17T16:32:28.428Z,3.30
2023-01-17T16:34:56.530Z,3.20
2023-01-17T16:37:24.868Z,3.20
2023-01-17T16:39:54.432Z,3.10
2023-01-17T16:42:22.700Z,3.10
2023-01-17T16:44:51.028Z,3.00
2023-01-17T16:47:19.037Z,2.90
2023-01-17T16:49:47.442Z,2.90
2023-01-17T16:52:15.387Z,2.80
2023-01-17T16:54:43.538Z,2.70
2023-01-17T16:57:15.910Z,2.60
2023-01-17T16:59:50.650Z,2.60
2023-01-17T17:02:20.116Z,2.50
2023-01-17T17:04:49.037Z,2.50
2023-01-17T17:07:17.581Z,2.50
2023-01-17T17:09:45.716Z,2.50
2023-01-17T17:12:15.416Z,2.40
2023-01-17T17:14:43.642Z,2.40
2023-01-17T17:17:11.832Z,2.40
2023-01-17T17:19:40.459Z,2.30
2023-01-17T17:22:08.757Z,2.20
2023-01-17T17:24:37.126Z,2.20
2023-01-17T17:27:07.107Z,2.10
2023-01-17T17:29:36.620Z,2.10
2023-01-17T17:32:07.426Z,2.10
2023-01-17T17:34:36.679Z,2.00
2023-01-17T17:37:05.167Z,2.00
2023-01-17T17:39:34.531Z,2.00
2023-01-17T17:42:02.768Z,2.00
2023-01-17T17:44:31.444Z,2.00
2023-01-17T17:47:01.351Z,1.90
2023-01-17T17:49:29.603Z,1.90
2023-01-17T17:52:03.914Z,1.90
2023-01-17T17:54:33.267Z,1.90
2023-01-17T17:57:02.082Z,1.90
2023-01-17T17:59:32.338Z,1.90
2023-01-17T18:02:02.340Z,1.90
2023-01-17T18:04:30.616Z,1.90
2023-01-17T18:07:01.767Z,1.80
2023-01-17T18:09:35.543Z,1.80
2023-01-17T18:12:05.785Z,1.80
2023-01-17T18:14:35.136Z,1.80
2023-01-17T18:17:05.957Z,1.80
2023-01-17T18:19:34.408Z,1.80
2023-01-17T18:22:07.628Z,1.70
2023-01-17T18:24:39.075Z,1.70
2023-01-17T18:27:07.280Z,1.60
2023-01-17T18:29:40.729Z,1.60
2023-01-17T18:32:16.795Z,1.60
2023-01-17T18:34:47.609Z,1.60
2023-01-17T18:37:20.699Z,1.50
2023-01-17T18:39:48.968Z,1.50
2023-01-17T18:42:18.580Z,1.50
2023-01-17T18:44:48.583Z,1.50
2023-01-17T18:47:19.342Z,1.60
2023-01-17T18:49:53.913Z,1.60
2023-01-17T18:52:22.096Z,1.60
2023-01-17T18:54:50.427Z,1.50
2023-01-17T18:57:18.916Z,1.50
2023-01-17T18:59:48.885Z,1.50
2023-01-17T19:02:41.560Z,1.60
2023-01-17T19:05:12.245Z,1.60
2023-01-17T19:07:41.524Z,1.60
2023-01-17T19:10:10.304Z,1.60
2023-01-17T19:12:38.615Z,1.50
2023-01-17T19:15:09.560Z,1.50
2023-01-17T19:17:39.345Z,1.40
2023-01-17T19:20:09.205Z,1.40
2023-01-17T19:22:39.065Z,1.30
2023-01-17T19:25:07.969Z,1.30
2023-01-17T19:27:37.492Z,1.40
2023-01-17T19:30:06.296Z,1.40
2023-01-17T19:32:34.626Z,1.40
2023-01-17T19:35:04.760Z,1.40
2023-01-17T19:37:33.062Z,1.50
2023-01-17T19:40:01.402Z,1.50
2023-01-17T19:42:30.264Z,1.50
2023-01-17T19:44:58.655Z,1.60
2023-01-17T19:47:26.945Z,1.60
2023-01-17T19:49:55.069Z,1.70
2023-01-17T19:52:26.806Z,1.70
2023-01-17T19:54:55.205Z,1.80
2023-01-17T19:57:26.533Z,1.90
2023-01-17T19:59:56.873Z,2.00
2023-01-17T20:02:27.626Z,2.10
2023-01-17T20:04:56.664Z,2.20
2023-01-17T20:07:26.049Z,2.30
2023-01-17T20:09:56.155Z,2.40
2023-01-17T20:12:24.133Z,2.50
2023-01-17T20:14:57.492Z,2.50
2023-01-17T20:17:25.810Z,2.60
2023-01-17T20:19:54.050Z,2.60
2023-01-17T20:22:22.192Z,2.70
2023-01-17T20:24:52.466Z,2.70
2023-01-17T20:27:29.668Z,2.70
2023-01-17T20:30:05.380Z,2.70
2023-01-17T20:35:26.049Z,2.70
2023-01-17T20:37:55.135Z,2.60
2023-01-17T20:40:25.397Z,2.50
2023-01-17T20:42:55.528Z,2.50
2023-01-17T20:45:24.040Z,2.40
2023-01-17T20:47:52.776Z,2.30
2023-01-17T20:50:20.891Z,2.30
2023-01-17T20:52:49.555Z,2.30
2023-01-17T20:55:18.451Z,2.20
2023-01-17T20:57:48.009Z,2.10
2023-01-17T21:00:16.669Z,2.10
2023-01-17T21:02:46.599Z,2.00
2023-01-17T21:05:14.933Z,2.00
2023-01-17T21:07:42.960Z,1.90
2023-01-17T21:10:13.329Z,1.80
2023-01-17T21:12:42.481Z,1.70
2023-01-17T21:15:19.083Z,1.60
2023-01-17T21:17:52.446Z,1.50
2023-01-17T21:20:20.533Z,1.40
2023-01-17T21:22:48.924Z,1.40
2023-01-17T21:25:17.664Z,1.30
2023-01-17T21:27:46.258Z,1.30
2023-01-17T21:30:16.332Z,1.20
2023-01-17T21:32:44.897Z,1.20
2023-01-17T21:35:15.514Z,1.20
2023-01-17T21:37:52.269Z,1.20
2023-01-17T21:40:21.697Z,1.20
2023-01-17T21:42:52.065Z,1.20
2023-01-17T21:45:21.689Z,1.10
2023-01-17T21:47:49.920Z,1.10
2023-01-17T21:50:32.419Z,1.10
2023-01-17T21:53:01.392Z,1.10
2023-01-17T21:55:49.958Z,1.20
2023-01-17T21:58:36.024Z,1.10
2023-01-17T22:01:17.703Z,1.10
2023-01-17T22:03:48.630Z,1.10
2023-01-17T22:06:17.227Z,1.10
2023-01-17T22:08:46.076Z,1.20
2023-01-17T22:11:18.281Z,1.20
2023-01-17T22:13:46.751Z,1.20
2023-01-17T22:16:17.826Z,1.20
2023-01-17T22:18:46.394Z,1.20
2023-01-17T22:21:17.875Z,1.20
2023-01-17T22:23:47.613Z,1.20
2023-01-17T22:26:16.010Z,1.20
2023-01-17T22:28:45.603Z,1.20
2023-01-17T22:31:15.555Z,1.20
2023-01-17T22:33:49.741Z,1.30
2023-01-17T22:36:18.304Z,1.30
2023-01-17T22:38:50.603Z,1.30
2023-01-17T22:41:21.257Z,1.30
2023-01-17T22:43:51.615Z,1.30
2023-01-17T22:46:21.111Z,1.30
2023-01-17T22:48:53.926Z,1.30
2023-01-17T22:51:23.208Z,1.30
2023-01-17T22:53:55.167Z,1.30
2023-01-17T22:56:27.940Z,1.20
2023-01-17T22:58:57.658Z,1.20
2023-01-17T23:01:29.361Z,1.20
2023-01-17T23:04:02.748Z,1.20
2023-01-17T23:06:40.537Z,1.20
2023-01-17T23:09:10.666Z,1.20
2023-01-17T23:11:44.092Z,1.20
2023-01-17T23:14:15.841Z,1.20
2023-01-17T23:17:03.956Z,1.20
2023-01-17T23:19:34.976Z,1.30
2023-01-17T23:22:19.618Z,1.30
2023-01-17T23:24:49.278Z,1.30
2023-01-17T23:27:35.621Z,1.20
2023-01-17T23:30:07.394Z,1.20
2023-01-17T23:32:35.891Z,1.20
2023-01-17T23:35:06.179Z,1.20
2023-01-17T23:37:52.807Z,1.30
2023-01-17T23:40:30.894Z,1.30
2023-01-17T23:43:21.651Z,1.30
2023-01-17T23:45:50.668Z,1.30
2023-01-17T23:48:26.252Z,1.30
2023-01-17T23:51:02.610Z,1.30
2023-01-17T23:53:34.044Z,1.30
2023-01-17T23:56:05.916Z,1.40
2023-01-17T23:58:34.096Z,1.40
